sensor_id;sensor_type;location;lat;lon;timestamp;temperature;humidity
25550;DHT22;13444;50.562;7.262;2023-02-20T00:00:07;7.10;99.90
25550;DHT22;13444;50.562;7.262;2023-02-20T00:02:33;7.10;99.90
25550;DHT22;13444;50.562;7.262;2023-02-20T00:04:58;7.00;99.90
25550;DHT22;13444;50.562;7.262;2023-02-20T00:07:24;7.00;99.90
25550;DHT22;13444;50.562;7.262;2023-02-20T00:09:49;6.90;99.90
25550;DHT22;13444;50.562;7.262;2023-02-20T00:12:15;6.90;99.90
25550;DHT22;13444;50.562;7.262;2023-02-20T00:14:40;6.90;99.90
25550;DHT22;13444;50.562;7.262;2023-02-20T00:17:06;6.80;99.90
25550;DHT22;13444;50.562;7.262;2023-02-20T00:19:31;6.70;99.90
25550;DHT22;13444;50.562;7.262;2023-02-20T00:21:57;6.70;99.90
25550;DHT22;13444;50.562;7.262;2023-02-20T00:24:22;6.60;99.90
25550;DHT22;13444;50.562;7.262;2023-02-20T00:26:49;6.60;99.90
25550;DHT22;13444;50.562;7.262;2023-02-20T00:29:21;6.60;99.90
25550;DHT22;13444;50.562;7.262;2023-02-20T00:31:56;6.50;99.90
25550;DHT22;13444;50.562;7.262;2023-02-20T00:34:23;6.50;99.90
25550;DHT22;13444;50.562;7.262;2023-02-20T00:36:49;6.40;99.90
25550;DHT22;13444;50.562;7.262;2023-02-20T00:39:15;6.40;99.90
25550;DHT22;13444;50.562;7.262;2023-02-20T00:41:40;6.40;99.90
25550;DHT22;13444;50.562;7.262;2023-02-20T00:44:06;6.30;99.90
25550;DHT22;13444;50.562;7.262;2023-02-20T00:46:31;6.30;99.90
25550;DHT22;13444;50.562;7.262;2023-02-20T00:48:57;6.20;99.90
25550;DHT22;13444;50.562;7.262;2023-02-20T00:51:23;6.10;99.90
25550;DHT22;13444;50.562;7.262;2023-02-20T00:53:49;6.10;99.90
25550;DHT22;13444;50.562;7.262;2023-02-20T00:56:17;6.00;99.90
25550;DHT22;13444;50.562;7.262;2023-02-20T00:58:43;6.00;99.90
25550;DHT22;13444;50.562;7.262;2023-02-20T01:01:08;6.00;99.90
25550;DHT22;13444;50.562;7.262;2023-02-20T01:03:34;5.90;99.90
25550;DHT22;13444;50.562;7.262;2023-02-20T01:05:59;5.90;99.90
25550;DHT22;13444;50.562;7.262;2023-02-20T01:08:25;5.90;99.90
25550;DHT22;13444;50.562;7.262;2023-02-20T01:10:50;5.80;99.90
25550;DHT22;13444;50.562;7.262;2023-02-20T01:13:16;5.80;99.90
25550;DHT22;13444;50.562;7.262;2023-02-20T01:15:42;5.70;99.90
25550;DHT22;13444;50.562;7.262;2023-02-20T01:18:08;5.70;99.90
25550;DHT22;13444;50.562;7.262;2023-02-20T01:20:33;5.70;99.90
25550;DHT22;13444;50.562;7.262;2023-02-20T01:22:59;5.70;99.90
25550;DHT22;13444;50.562;7.262;2023-02-20T01:25:24;5.60;99.90
25550;DHT22;13444;50.562;7.262;2023-02-20T01:27:50;5.60;99.90
25550;DHT22;13444;50.562;7.262;2023-02-20T01:30:15;5.50;99.90
25550;DHT22;13444;50.562;7.262;2023-02-20T01:32:41;5.50;99.90
25550;DHT22;13444;50.562;7.262;2023-02-20T01:35:07;5.40;99.90
25550;DHT22;13444;50.562;7.262;2023-02-20T01:37:33;5.40;99.90
25550;DHT22;13444;50.562;7.262;2023-02-20T01:39:58;5.40;99.90
25550;DHT22;13444;50.562;7.262;2023-02-20T01:42:28;5.40;99.90
25550;DHT22;13444;50.562;7.262;2023-02-20T01:44:54;5.40;99.90
25550;DHT22;13444;50.562;7.262;2023-02-20T01:47:21;5.40;99.90
25550;DHT22;13444;50.562;7.262;2023-02-20T01:50:06;5.40;99.90
25550;DHT22;13444;50.562;7.262;2023-02-20T01:52:33;5.30;99.90
25550;DHT22;13444;50.562;7.262;2023-02-20T01:55:11;5.30;99.90
25550;DHT22;13444;50.562;7.262;2023-02-20T01:57:40;5.30;99.90
25550;DHT22;13444;50.562;7.262;2023-02-20T02:00:13;5.30;99.90
25550;DHT22;13444;50.562;7.262;2023-02-20T02:02:43;5.30;99.90
25550;DHT22;13444;50.562;7.262;2023-02-20T02:05:11;5.30;99.90
25550;DHT22;13444;50.562;7.262;2023-02-20T02:07:37;5.30;99.90
25550;DHT22;13444;50.562;7.262;2023-02-20T02:10:07;5.40;99.90
25550;DHT22;13444;50.562;7.262;2023-02-20T02:12:34;5.40;99.90
25550;DHT22;13444;50.562;7.262;2023-02-20T02:15:00;5.30;99.90
25550;DHT22;13444;50.562;7.262;2023-02-20T02:17:36;5.40;99.90
25550;DHT22;13444;50.562;7.262;2023-02-20T02:26:13;5.40;99.90
25550;DHT22;13444;50.562;7.262;2023-02-20T02:37:28;5.30;99.90
25550;DHT22;13444;50.562;7.262;2023-02-20T02:40:11;5.30;99.90
25550;DHT22;13444;50.562;7.262;2023-02-20T02:43:06;5.20;99.90
25550;DHT22;13444;50.562;7.262;2023-02-20T02:45:46;5.20;99.90
25550;DHT22;13444;50.562;7.262;2023-02-20T02:48:21;5.30;99.90
25550;DHT22;13444;50.562;7.262;2023-02-20T02:50:51;5.30;99.90
25550;DHT22;13444;50.562;7.262;2023-02-20T02:53:18;5.20;99.90
25550;DHT22;13444;50.562;7.262;2023-02-20T02:55:44;5.20;99.90
25550;DHT22;13444;50.562;7.262;2023-02-20T02:58:10;5.20;99.90
25550;DHT22;13444;50.562;7.262;2023-02-20T03:00:41;5.20;99.90
25550;DHT22;13444;50.562;7.262;2023-02-20T03:03:31;5.10;99.90
25550;DHT22;13444;50.562;7.262;2023-02-20T03:06:15;5.00;99.90
25550;DHT22;13444;50.562;7.262;2023-02-20T03:08:51;5.00;99.90
25550;DHT22;13444;50.562;7.262;2023-02-20T03:11:23;4.90;99.90
25550;DHT22;13444;50.562;7.262;2023-02-20T03:13:58;4.90;99.90
25550;DHT22;13444;50.562;7.262;2023-02-20T03:19:39;4.90;99.90
25550;DHT22;13444;50.562;7.262;2023-02-20T03:22:15;4.80;99.90
25550;DHT22;13444;50.562;7.262;2023-02-20T03:24:44;4.80;99.90
25550;DHT22;13444;50.562;7.262;2023-02-20T03:27:22;4.80;99.90
25550;DHT22;13444;50.562;7.262;2023-02-20T03:29:52;4.80;99.90
25550;DHT22;13444;50.562;7.262;2023-02-20T03:32:20;4.70;99.90
25550;DHT22;13444;50.562;7.262;2023-02-20T03:35:06;4.70;99.90
25550;DHT22;13444;50.562;7.262;2023-02-20T03:37:52;4.70;99.90
25550;DHT22;13444;50.562;7.262;2023-02-20T03:40:36;4.60;99.90
25550;DHT22;13444;50.562;7.262;2023-02-20T03:43:22;4.60;99.90
25550;DHT22;13444;50.562;7.262;2023-02-20T03:46:02;4.60;99.90
25550;DHT22;13444;50.562;7.262;2023-02-20T03:48:37;4.60;99.90
25550;DHT22;13444;50.562;7.262;2023-02-20T03:51:04;4.60;99.90
25550;DHT22;13444;50.562;7.262;2023-02-20T03:53:29;4.60;99.90
25550;DHT22;13444;50.562;7.262;2023-02-20T03:55:58;4.50;99.90
25550;DHT22;13444;50.562;7.262;2023-02-20T03:58:27;4.50;99.90
25550;DHT22;13444;50.562;7.262;2023-02-20T04:00:55;4.50;99.90
25550;DHT22;13444;50.562;7.262;2023-02-20T04:03:25;4.50;99.90
25550;DHT22;13444;50.562;7.262;2023-02-20T04:05:54;4.50;99.90
25550;DHT22;13444;50.562;7.262;2023-02-20T04:08:41;4.40;99.90
25550;DHT22;13444;50.562;7.262;2023-02-20T04:11:13;4.40;99.90
25550;DHT22;13444;50.562;7.262;2023-02-20T04:13:40;4.30;99.90
25550;DHT22;13444;50.562;7.262;2023-02-20T04:16:06;4.30;99.90
25550;DHT22;13444;50.562;7.262;2023-02-20T04:18:33;4.30;99.90
25550;DHT22;13444;50.562;7.262;2023-02-20T04:21:01;4.30;99.90
25550;DHT22;13444;50.562;7.262;2023-02-20T04:23:32;4.20;99.90
25550;DHT22;13444;50.562;7.262;2023-02-20T04:26:03;4.30;99.90
25550;DHT22;13444;50.562;7.262;2023-02-20T04:28:30;4.30;99.90
25550;DHT22;13444;50.562;7.262;2023-02-20T04:30:55;4.30;99.90
25550;DHT22;13444;50.562;7.262;2023-02-20T04:33:21;4.20;99.90
25550;DHT22;13444;50.562;7.262;2023-02-20T04:35:47;4.20;99.90
25550;DHT22;13444;50.562;7.262;2023-02-20T04:38:13;4.20;99.90
25550;DHT22;13444;50.562;7.262;2023-02-20T04:40:39;4.10;99.90
25550;DHT22;13444;50.562;7.262;2023-02-20T04:43:04;4.20;99.90
25550;DHT22;13444;50.562;7.262;2023-02-20T04:45:30;4.10;99.90
25550;DHT22;13444;50.562;7.262;2023-02-20T04:47:56;4.20;99.90
25550;DHT22;13444;50.562;7.262;2023-02-20T04:50:32;4.10;99.90
25550;DHT22;13444;50.562;7.262;2023-02-20T04:52:58;4.10;99.90
25550;DHT22;13444;50.562;7.262;2023-02-20T04:55:25;4.10;99.90
25550;DHT22;13444;50.562;7.262;2023-02-20T04:57:51;4.10;99.90
25550;DHT22;13444;50.562;7.262;2023-02-20T05:00:19;4.00;99.90
25550;DHT22;13444;50.562;7.262;2023-02-20T05:02:46;4.00;99.90
25550;DHT22;13444;50.562;7.262;2023-02-20T05:05:38;4.00;99.90
25550;DHT22;13444;50.562;7.262;2023-02-20T05:08:05;3.90;99.90
25550;DHT22;13444;50.562;7.262;2023-02-20T05:10:32;3.90;99.90
25550;DHT22;13444;50.562;7.262;2023-02-20T05:12:59;3.90;99.90
25550;DHT22;13444;50.562;7.262;2023-02-20T05:15:25;3.90;99.90
25550;DHT22;13444;50.562;7.262;2023-02-20T05:17:51;3.80;99.90
25550;DHT22;13444;50.562;7.262;2023-02-20T05:20:17;3.80;99.90
25550;DHT22;13444;50.562;7.262;2023-02-20T05:22:47;3.80;99.90
25550;DHT22;13444;50.562;7.262;2023-02-20T05:25:15;3.70;99.90
25550;DHT22;13444;50.562;7.262;2023-02-20T05:27:41;3.70;99.90
25550;DHT22;13444;50.562;7.262;2023-02-20T05:30:08;3.70;99.90
25550;DHT22;13444;50.562;7.262;2023-02-20T05:32:34;3.70;99.90
25550;DHT22;13444;50.562;7.262;2023-02-20T05:35:00;3.60;99.90
25550;DHT22;13444;50.562;7.262;2023-02-20T05:37:26;3.60;99.90
25550;DHT22;13444;50.562;7.262;2023-02-20T05:39:52;3.60;99.90
25550;DHT22;13444;50.562;7.262;2023-02-20T05:42:18;3.60;99.90
25550;DHT22;13444;50.562;7.262;2023-02-20T05:44:44;3.60;99.90
25550;DHT22;13444;50.562;7.262;2023-02-20T05:47:09;3.60;99.90
25550;DHT22;13444;50.562;7.262;2023-02-20T05:49:36;3.60;99.90
25550;DHT22;13444;50.562;7.262;2023-02-20T05:52:03;3.50;99.90
25550;DHT22;13444;50.562;7.262;2023-02-20T05:54:34;3.50;99.90
25550;DHT22;13444;50.562;7.262;2023-02-20T05:56:59;3.40;99.90
25550;DHT22;13444;50.562;7.262;2023-02-20T05:59:25;3.40;99.90
25550;DHT22;13444;50.562;7.262;2023-02-20T06:01:55;3.40;99.90
25550;DHT22;13444;50.562;7.262;2023-02-20T06:04:21;3.50;99.90
25550;DHT22;13444;50.562;7.262;2023-02-20T06:06:47;3.40;99.90
25550;DHT22;13444;50.562;7.262;2023-02-20T06:09:12;3.50;99.90
25550;DHT22;13444;50.562;7.262;2023-02-20T06:11:41;3.50;99.90
25550;DHT22;13444;50.562;7.262;2023-02-20T06:14:07;3.50;99.90
25550;DHT22;13444;50.562;7.262;2023-02-20T06:16:34;3.40;99.90
25550;DHT22;13444;50.562;7.262;2023-02-20T06:19:00;3.40;99.90
25550;DHT22;13444;50.562;7.262;2023-02-20T06:21:26;3.40;99.90
25550;DHT22;13444;50.562;7.262;2023-02-20T06:23:53;3.40;99.90
25550;DHT22;13444;50.562;7.262;2023-02-20T06:26:22;3.30;99.90
25550;DHT22;13444;50.562;7.262;2023-02-20T06:28:47;3.30;99.90
25550;DHT22;13444;50.562;7.262;2023-02-20T06:31:20;3.30;99.90
25550;DHT22;13444;50.562;7.262;2023-02-20T06:33:46;3.20;99.90
25550;DHT22;13444;50.562;7.262;2023-02-20T06:36:19;3.20;99.90
25550;DHT22;13444;50.562;7.262;2023-02-20T06:38:45;3.20;99.90
25550;DHT22;13444;50.562;7.262;2023-02-20T06:41:10;3.20;99.90
25550;DHT22;13444;50.562;7.262;2023-02-20T06:43:36;3.30;99.90
25550;DHT22;13444;50.562;7.262;2023-02-20T06:46:01;3.40;99.90
25550;DHT22;13444;50.562;7.262;2023-02-20T06:48:27;3.40;99.90
25550;DHT22;13444;50.562;7.262;2023-02-20T06:50:52;3.40;99.90
25550;DHT22;13444;50.562;7.262;2023-02-20T06:53:20;3.50;99.90
25550;DHT22;13444;50.562;7.262;2023-02-20T06:55:45;3.50;99.90
25550;DHT22;13444;50.562;7.262;2023-02-20T06:58:11;3.50;99.90
25550;DHT22;13444;50.562;7.262;2023-02-20T07:00:36;3.50;99.90
25550;DHT22;13444;50.562;7.262;2023-02-20T07:03:02;3.60;99.90
25550;DHT22;13444;50.562;7.262;2023-02-20T07:05:28;3.60;99.90
25550;DHT22;13444;50.562;7.262;2023-02-20T07:07:54;3.70;99.90
25550;DHT22;13444;50.562;7.262;2023-02-20T07:10:19;3.80;99.90
25550;DHT22;13444;50.562;7.262;2023-02-20T07:12:44;3.80;99.90
25550;DHT22;13444;50.562;7.262;2023-02-20T07:15:10;3.90;99.90
25550;DHT22;13444;50.562;7.262;2023-02-20T07:17:37;3.90;99.90
25550;DHT22;13444;50.562;7.262;2023-02-20T07:20:03;4.00;99.90
25550;DHT22;13444;50.562;7.262;2023-02-20T07:22:29;4.00;99.90
25550;DHT22;13444;50.562;7.262;2023-02-20T07:24:55;4.00;99.90
25550;DHT22;13444;50.562;7.262;2023-02-20T07:27:20;4.10;99.90
25550;DHT22;13444;50.562;7.262;2023-02-20T07:29:48;4.10;99.90
25550;DHT22;13444;50.562;7.262;2023-02-20T07:32:14;4.20;99.90
25550;DHT22;13444;50.562;7.262;2023-02-20T07:34:45;4.20;99.90
25550;DHT22;13444;50.562;7.262;2023-02-20T07:37:10;4.30;99.90
25550;DHT22;13444;50.562;7.262;2023-02-20T07:39:36;4.40;99.90
25550;DHT22;13444;50.562;7.262;2023-02-20T07:42:01;4.50;99.90
25550;DHT22;13444;50.562;7.262;2023-02-20T07:44:27;4.60;99.90
25550;DHT22;13444;50.562;7.262;2023-02-20T07:46:52;4.80;99.90
25550;DHT22;13444;50.562;7.262;2023-02-20T07:49:18;4.90;99.90
25550;DHT22;13444;50.562;7.262;2023-02-20T07:51:43;4.90;99.90
25550;DHT22;13444;50.562;7.262;2023-02-20T07:54:08;5.10;99.90
25550;DHT22;13444;50.562;7.262;2023-02-20T07:56:34;5.10;99.90
25550;DHT22;13444;50.562;7.262;2023-02-20T07:58:59;5.20;99.90
25550;DHT22;13444;50.562;7.262;2023-02-20T08:01:25;5.20;99.90
25550;DHT22;13444;50.562;7.262;2023-02-20T08:03:50;5.30;99.90
25550;DHT22;13444;50.562;7.262;2023-02-20T08:06:17;5.50;99.90
25550;DHT22;13444;50.562;7.262;2023-02-20T08:08:50;5.90;99.90
25550;DHT22;13444;50.562;7.262;2023-02-20T08:11:17;6.50;99.90
25550;DHT22;13444;50.562;7.262;2023-02-20T08:13:43;7.00;99.90
25550;DHT22;13444;50.562;7.262;2023-02-20T08:16:10;7.60;99.90
25550;DHT22;13444;50.562;7.262;2023-02-20T08:18:35;8.10;99.90
25550;DHT22;13444;50.562;7.262;2023-02-20T08:21:01;8.50;99.90
25550;DHT22;13444;50.562;7.262;2023-02-20T08:23:27;8.90;99.90
25550;DHT22;13444;50.562;7.262;2023-02-20T08:31:03;10.30;99.90
25550;DHT22;13444;50.562;7.262;2023-02-20T08:33:29;10.90;99.90
25550;DHT22;13444;50.562;7.262;2023-02-20T08:35:55;11.50;99.90
25550;DHT22;13444;50.562;7.262;2023-02-20T08:38:24;12.00;99.90
25550;DHT22;13444;50.562;7.262;2023-02-20T08:40:50;12.30;99.90
25550;DHT22;13444;50.562;7.262;2023-02-20T08:43:16;12.20;99.90
25550;DHT22;13444;50.562;7.262;2023-02-20T08:45:41;12.30;99.90
25550;DHT22;13444;50.562;7.262;2023-02-20T08:48:07;12.30;99.90
25550;DHT22;13444;50.562;7.262;2023-02-20T08:50:33;12.50;99.90
25550;DHT22;13444;50.562;7.262;2023-02-20T08:52:59;12.50;99.90
25550;DHT22;13444;50.562;7.262;2023-02-20T08:55:25;12.60;99.90
25550;DHT22;13444;50.562;7.262;2023-02-20T08:57:50;12.70;99.90
25550;DHT22;13444;50.562;7.262;2023-02-20T09:00:16;12.90;99.90
25550;DHT22;13444;50.562;7.262;2023-02-20T09:02:45;13.10;99.90
25550;DHT22;13444;50.562;7.262;2023-02-20T09:05:11;12.90;99.90
25550;DHT22;13444;50.562;7.262;2023-02-20T09:07:37;13.00;99.90
25550;DHT22;13444;50.562;7.262;2023-02-20T09:10:03;13.00;99.90
25550;DHT22;13444;50.562;7.262;2023-02-20T09:12:29;13.20;99.90
25550;DHT22;13444;50.562;7.262;2023-02-20T09:14:56;13.10;99.90
25550;DHT22;13444;50.562;7.262;2023-02-20T09:17:25;13.10;99.90
25550;DHT22;13444;50.562;7.262;2023-02-20T09:19:50;13.10;99.90
25550;DHT22;13444;50.562;7.262;2023-02-20T09:22:23;13.20;99.90
25550;DHT22;13444;50.562;7.262;2023-02-20T09:24:50;13.40;99.90
25550;DHT22;13444;50.562;7.262;2023-02-20T09:27:15;13.50;99.90
25550;DHT22;13444;50.562;7.262;2023-02-20T09:29:41;13.80;99.90
25550;DHT22;13444;50.562;7.262;2023-02-20T09:32:08;13.90;99.90
25550;DHT22;13444;50.562;7.262;2023-02-20T09:34:34;14.10;99.90
25550;DHT22;13444;50.562;7.262;2023-02-20T09:36:59;14.40;99.90
25550;DHT22;13444;50.562;7.262;2023-02-20T09:39:25;14.50;99.90
25550;DHT22;13444;50.562;7.262;2023-02-20T09:42:04;14.60;99.90
25550;DHT22;13444;50.562;7.262;2023-02-20T09:44:41;14.40;99.90
25550;DHT22;13444;50.562;7.262;2023-02-20T09:53:20;14.80;99.90
25550;DHT22;13444;50.562;7.262;2023-02-20T09:55:48;15.70;99.90
25550;DHT22;13444;50.562;7.262;2023-02-20T09:58:22;16.30;99.90
25550;DHT22;13444;50.562;7.262;2023-02-20T10:00:50;16.60;99.90
25550;DHT22;13444;50.562;7.262;2023-02-20T10:05:45;17.40;99.90
25550;DHT22;13444;50.562;7.262;2023-02-20T10:08:15;17.30;99.90
25550;DHT22;13444;50.562;7.262;2023-02-20T10:10:48;17.50;99.90
25550;DHT22;13444;50.562;7.262;2023-02-20T10:16:31;17.80;99.90
25550;DHT22;13444;50.562;7.262;2023-02-20T10:19:10;17.80;99.90
25550;DHT22;13444;50.562;7.262;2023-02-20T10:21:57;18.10;99.90
25550;DHT22;13444;50.562;7.262;2023-02-20T10:27:58;18.40;99.90
25550;DHT22;13444;50.562;7.262;2023-02-20T10:30:30;18.60;99.90
25550;DHT22;13444;50.562;7.262;2023-02-20T10:33:09;17.80;99.90
25550;DHT22;13444;50.562;7.262;2023-02-20T10:35:48;17.50;99.90
25550;DHT22;13444;50.562;7.262;2023-02-20T10:38:17;18.00;99.90
25550;DHT22;13444;50.562;7.262;2023-02-20T10:40:52;18.50;99.90
25550;DHT22;13444;50.562;7.262;2023-02-20T10:43:27;18.80;99.90
25550;DHT22;13444;50.562;7.262;2023-02-20T10:46:02;19.10;99.90
25550;DHT22;13444;50.562;7.262;2023-02-20T10:48:32;19.10;99.90
25550;DHT22;13444;50.562;7.262;2023-02-20T10:51:10;19.30;99.90
25550;DHT22;13444;50.562;7.262;2023-02-20T10:53:58;19.50;99.90
25550;DHT22;13444;50.562;7.262;2023-02-20T10:56:51;19.60;99.90
25550;DHT22;13444;50.562;7.262;2023-02-20T10:59:30;20.00;99.90
25550;DHT22;13444;50.562;7.262;2023-02-20T11:02:01;20.30;99.90
25550;DHT22;13444;50.562;7.262;2023-02-20T11:04:31;20.10;99.90
25550;DHT22;13444;50.562;7.262;2023-02-20T11:07:02;19.80;99.90
25550;DHT22;13444;50.562;7.262;2023-02-20T11:09:28;19.80;99.90
25550;DHT22;13444;50.562;7.262;2023-02-20T11:11:55;19.60;99.90
25550;DHT22;13444;50.562;7.262;2023-02-20T11:14:33;19.80;99.90
25550;DHT22;13444;50.562;7.262;2023-02-20T11:19:51;19.50;99.90
25550;DHT22;13444;50.562;7.262;2023-02-20T11:22:40;19.70;99.90
25550;DHT22;13444;50.562;7.262;2023-02-20T11:25:15;19.70;99.90
25550;DHT22;13444;50.562;7.262;2023-02-20T11:27:41;19.70;99.90
25550;DHT22;13444;50.562;7.262;2023-02-20T11:33:16;18.80;99.90
25550;DHT22;13444;50.562;7.262;2023-02-20T11:35:44;19.00;99.90
25550;DHT22;13444;50.562;7.262;2023-02-20T11:38:32;19.00;99.90
25550;DHT22;13444;50.562;7.262;2023-02-20T11:41:04;19.10;99.90
25550;DHT22;13444;50.562;7.262;2023-02-20T11:43:39;19.40;99.90
25550;DHT22;13444;50.562;7.262;2023-02-20T11:46:13;19.60;99.90
25550;DHT22;13444;50.562;7.262;2023-02-20T11:48:58;19.60;99.90
25550;DHT22;13444;50.562;7.262;2023-02-20T11:54:16;19.80;99.90
25550;DHT22;13444;50.562;7.262;2023-02-20T11:57:05;20.00;99.90
25550;DHT22;13444;50.562;7.262;2023-02-20T11:59:45;20.00;99.90
25550;DHT22;13444;50.562;7.262;2023-02-20T12:07:36;20.10;99.90
25550;DHT22;13444;50.562;7.262;2023-02-20T12:12:46;20.30;99.90
25550;DHT22;13444;50.562;7.262;2023-02-20T12:15:15;20.10;99.90
25550;DHT22;13444;50.562;7.262;2023-02-20T12:17:45;19.80;99.90
25550;DHT22;13444;50.562;7.262;2023-02-20T12:20:17;19.80;99.90
25550;DHT22;13444;50.562;7.262;2023-02-20T12:23:24;19.90;99.90
25550;DHT22;13444;50.562;7.262;2023-02-20T12:26:08;19.90;99.90
25550;DHT22;13444;50.562;7.262;2023-02-20T12:34:34;19.90;99.90
25550;DHT22;13444;50.562;7.262;2023-02-20T12:37:29;19.60;99.90
25550;DHT22;13444;50.562;7.262;2023-02-20T12:40:02;19.50;99.90
25550;DHT22;13444;50.562;7.262;2023-02-20T12:45:51;19.30;99.90
25550;DHT22;13444;50.562;7.262;2023-02-20T12:48:52;18.90;99.90
25550;DHT22;13444;50.562;7.262;2023-02-20T12:51:44;18.80;99.90
25550;DHT22;13444;50.562;7.262;2023-02-20T12:54:25;18.30;99.90
25550;DHT22;13444;50.562;7.262;2023-02-20T13:00:03;17.80;99.90
25550;DHT22;13444;50.562;7.262;2023-02-20T13:02:40;17.80;99.90
25550;DHT22;13444;50.562;7.262;2023-02-20T13:05:13;17.70;99.90
25550;DHT22;13444;50.562;7.262;2023-02-20T13:07:56;17.60;99.90
25550;DHT22;13444;50.562;7.262;2023-02-20T13:10:46;17.70;99.90
25550;DHT22;13444;50.562;7.262;2023-02-20T13:13:12;17.70;99.90
25550;DHT22;13444;50.562;7.262;2023-02-20T13:18:26;17.90;99.90
25550;DHT22;13444;50.562;7.262;2023-02-20T13:21:02;17.90;99.90
25550;DHT22;13444;50.562;7.262;2023-02-20T13:23:33;17.80;99.90
25550;DHT22;13444;50.562;7.262;2023-02-20T13:25:59;17.80;99.90
25550;DHT22;13444;50.562;7.262;2023-02-20T13:28:38;17.70;99.90
25550;DHT22;13444;50.562;7.262;2023-02-20T13:33:42;17.50;99.90
25550;DHT22;13444;50.562;7.262;2023-02-20T13:47:15;16.90;99.90
25550;DHT22;13444;50.562;7.262;2023-02-20T13:52:40;16.80;99.90
25550;DHT22;13444;50.562;7.262;2023-02-20T13:57:56;16.50;99.90
25550;DHT22;13444;50.562;7.262;2023-02-20T14:00:43;16.50;99.90
25550;DHT22;13444;50.562;7.262;2023-02-20T14:03:24;16.60;99.90
25550;DHT22;13444;50.562;7.262;2023-02-20T14:06:13;16.60;99.90
25550;DHT22;13444;50.562;7.262;2023-02-20T14:08:46;16.70;99.90
25550;DHT22;13444;50.562;7.262;2023-02-20T14:11:35;16.70;99.90
25550;DHT22;13444;50.562;7.262;2023-02-20T14:14:27;16.50;99.90
25550;DHT22;13444;50.562;7.262;2023-02-20T14:17:06;16.30;99.90
25550;DHT22;13444;50.562;7.262;2023-02-20T14:19:38;16.10;99.90
25550;DHT22;13444;50.562;7.262;2023-02-20T14:22:21;15.90;99.90
25550;DHT22;13444;50.562;7.262;2023-02-20T14:25:21;15.70;99.90
25550;DHT22;13444;50.562;7.262;2023-02-20T14:27:47;15.70;99.90
25550;DHT22;13444;50.562;7.262;2023-02-20T14:30:21;15.50;99.90
25550;DHT22;13444;50.562;7.262;2023-02-20T14:32:53;15.50;99.90
25550;DHT22;13444;50.562;7.262;2023-02-20T14:35:52;15.50;99.90
25550;DHT22;13444;50.562;7.262;2023-02-20T14:38:40;15.50;99.90
25550;DHT22;13444;50.562;7.262;2023-02-20T14:41:21;15.40;99.90
25550;DHT22;13444;50.562;7.262;2023-02-20T14:43:55;15.40;99.90
25550;DHT22;13444;50.562;7.262;2023-02-20T14:46:24;15.10;99.90
25550;DHT22;13444;50.562;7.262;2023-02-20T14:49:10;14.90;99.90
25550;DHT22;13444;50.562;7.262;2023-02-20T14:51:36;14.80;99.90
25550;DHT22;13444;50.562;7.262;2023-02-20T14:54:23;14.80;99.90
25550;DHT22;13444;50.562;7.262;2023-02-20T14:56:50;14.70;99.90
25550;DHT22;13444;50.562;7.262;2023-02-20T14:59:24;14.60;99.90
25550;DHT22;13444;50.562;7.262;2023-02-20T15:01:51;14.60;99.90
25550;DHT22;13444;50.562;7.262;2023-02-20T15:04:18;14.60;99.90
25550;DHT22;13444;50.562;7.262;2023-02-20T15:06:47;14.50;99.90
25550;DHT22;13444;50.562;7.262;2023-02-20T15:09:13;14.50;99.90
25550;DHT22;13444;50.562;7.262;2023-02-20T15:11:53;14.50;99.90
25550;DHT22;13444;50.562;7.262;2023-02-20T15:14:23;14.50;99.90
25550;DHT22;13444;50.562;7.262;2023-02-20T15:17:18;14.40;99.90
25550;DHT22;13444;50.562;7.262;2023-02-20T15:19:45;14.40;99.90
25550;DHT22;13444;50.562;7.262;2023-02-20T15:22:33;14.30;99.90
25550;DHT22;13444;50.562;7.262;2023-02-20T15:25:29;14.30;99.90
25550;DHT22;13444;50.562;7.262;2023-02-20T15:30:33;14.20;99.90
25550;DHT22;13444;50.562;7.262;2023-02-20T15:32:59;14.20;99.90
25550;DHT22;13444;50.562;7.262;2023-02-20T15:35:27;14.10;99.90
25550;DHT22;13444;50.562;7.262;2023-02-20T15:37:55;14.10;99.90
25550;DHT22;13444;50.562;7.262;2023-02-20T15:40:28;14.10;99.90
25550;DHT22;13444;50.562;7.262;2023-02-20T15:42:54;14.00;99.90
25550;DHT22;13444;50.562;7.262;2023-02-20T15:45:25;14.00;99.90
25550;DHT22;13444;50.562;7.262;2023-02-20T15:47:52;14.00;99.90
25550;DHT22;13444;50.562;7.262;2023-02-20T15:50:18;14.00;99.90
25550;DHT22;13444;50.562;7.262;2023-02-20T15:52:44;13.90;99.90
25550;DHT22;13444;50.562;7.262;2023-02-20T15:55:18;13.90;99.90
25550;DHT22;13444;50.562;7.262;2023-02-20T15:57:46;13.90;99.90
25550;DHT22;13444;50.562;7.262;2023-02-20T16:00:27;13.80;99.90
25550;DHT22;13444;50.562;7.262;2023-02-20T16:03:00;13.80;99.90
25550;DHT22;13444;50.562;7.262;2023-02-20T16:05:28;13.80;99.90
25550;DHT22;13444;50.562;7.262;2023-02-20T16:07:54;13.90;99.90
25550;DHT22;13444;50.562;7.262;2023-02-20T16:10:20;14.10;99.90
25550;DHT22;13444;50.562;7.262;2023-02-20T16:12:52;14.30;99.90
25550;DHT22;13444;50.562;7.262;2023-02-20T16:15:19;14.40;99.90
25550;DHT22;13444;50.562;7.262;2023-02-20T16:17:49;14.30;99.90
25550;DHT22;13444;50.562;7.262;2023-02-20T16:20:21;14.20;99.90
25550;DHT22;13444;50.562;7.262;2023-02-20T16:22:47;14.10;99.90
25550;DHT22;13444;50.562;7.262;2023-02-20T16:25:16;14.00;99.90
25550;DHT22;13444;50.562;7.262;2023-02-20T16:27:42;13.80;99.90
25550;DHT22;13444;50.562;7.262;2023-02-20T16:30:17;13.70;99.90
25550;DHT22;13444;50.562;7.262;2023-02-20T16:32:42;13.60;99.90
25550;DHT22;13444;50.562;7.262;2023-02-20T16:35:11;13.50;99.90
25550;DHT22;13444;50.562;7.262;2023-02-20T16:37:37;13.40;99.90
25550;DHT22;13444;50.562;7.262;2023-02-20T16:40:04;13.30;99.90
25550;DHT22;13444;50.562;7.262;2023-02-20T16:42:34;13.20;99.90
25550;DHT22;13444;50.562;7.262;2023-02-20T16:45:04;13.10;99.90
25550;DHT22;13444;50.562;7.262;2023-02-20T16:47:30;13.00;99.90
25550;DHT22;13444;50.562;7.262;2023-02-20T16:49:56;12.80;99.90
25550;DHT22;13444;50.562;7.262;2023-02-20T16:52:28;12.70;99.90
25550;DHT22;13444;50.562;7.262;2023-02-20T16:54:55;12.60;99.90
25550;DHT22;13444;50.562;7.262;2023-02-20T16:57:21;12.50;99.90
25550;DHT22;13444;50.562;7.262;2023-02-20T16:59:49;12.30;99.90
25550;DHT22;13444;50.562;7.262;2023-02-20T17:02:16;12.20;99.90
25550;DHT22;13444;50.562;7.262;2023-02-20T17:04:42;12.20;99.90
25550;DHT22;13444;50.562;7.262;2023-02-20T17:07:08;12.10;99.90
25550;DHT22;13444;50.562;7.262;2023-02-20T17:09:35;12.00;99.90
25550;DHT22;13444;50.562;7.262;2023-02-20T17:12:01;11.90;99.90
25550;DHT22;13444;50.562;7.262;2023-02-20T17:14:26;11.80;99.90
25550;DHT22;13444;50.562;7.262;2023-02-20T17:16:52;11.70;99.90
25550;DHT22;13444;50.562;7.262;2023-02-20T17:19:17;11.60;99.90
25550;DHT22;13444;50.562;7.262;2023-02-20T17:21:47;11.60;99.90
25550;DHT22;13444;50.562;7.262;2023-02-20T17:24:14;11.50;99.90
25550;DHT22;13444;50.562;7.262;2023-02-20T17:26:39;11.40;99.90
25550;DHT22;13444;50.562;7.262;2023-02-20T17:29:05;11.20;99.90